createdAt,value
2022-11-16T00:02:13.695Z,6.23
2022-11-16T00:04:40.680Z,6.70
2022-11-16T00:07:09.963Z,7.28
2022-11-16T00:09:36.742Z,7.47
2022-11-16T00:12:07.548Z,6.87
2022-11-16T00:14:37.837Z,6.93
2022-11-16T00:17:07.030Z,7.30
2022-11-16T00:19:35.872Z,8.23
2022-11-16T00:22:02.543Z,6.97
2022-11-16T00:24:29.216Z,7.85
2022-11-16T00:26:56.166Z,6.27
2022-11-16T00:29:26.022Z,5.90
2022-11-16T00:31:55.894Z,7.80
2022-11-16T00:34:26.014Z,7.00
2022-11-16T00:36:52.669Z,6.33
2022-11-16T00:39:19.528Z,6.63
2022-11-16T00:41:46.905Z,6.63
2022-11-16T00:44:14.128Z,5.40
2022-11-16T00:46:43.303Z,6.27
2022-11-16T00:49:12.459Z,7.73
2022-11-16T00:51:39.184Z,5.67
2022-11-16T00:54:09.140Z,5.40
2022-11-16T00:56:40.680Z,6.55
2022-11-16T00:59:09.504Z,5.30
2022-11-16T01:01:38.648Z,6.47
2022-11-16T01:04:05.295Z,6.23
2022-11-16T01:06:34.129Z,5.20
2022-11-16T01:09:01.682Z,5.73
2022-11-16T01:11:47.130Z,5.37
2022-11-16T01:14:13.742Z,6.43
2022-11-16T01:16:42.652Z,4.63
2022-11-16T01:19:09.758Z,6.17
2022-11-16T01:21:36.445Z,4.43
2022-11-16T01:24:03.171Z,4.10
2022-11-16T01:26:32.319Z,4.30
2022-11-16T01:28:59.717Z,4.80
2022-11-16T01:31:28.624Z,6.40
2022-11-16T01:33:55.289Z,4.57
2022-11-16T01:36:21.912Z,4.50
2022-11-16T01:38:52.951Z,4.40
2022-11-16T01:41:24.743Z,4.23
2022-11-16T01:44:26.378Z,4.20
2022-11-16T01:46:57.650Z,4.60
2022-11-16T01:49:27.352Z,4.30
2022-11-16T01:52:00.544Z,4.10
2022-11-16T01:54:28.919Z,4.90
2022-11-16T01:56:59.379Z,4.43
2022-11-16T01:59:29.290Z,5.07
2022-11-16T02:01:56.820Z,4.35
2022-11-16T02:04:26.048Z,6.67
2022-11-16T02:07:13.022Z,4.80
2022-11-16T02:10:18.573Z,3.77
2022-11-16T02:12:53.247Z,3.53
2022-11-16T02:15:38.029Z,5.00
2022-11-16T02:18:34.208Z,3.75
2022-11-16T02:21:22.506Z,3.93
2022-11-16T02:24:04.481Z,3.70
2022-11-16T02:26:37.186Z,3.60
2022-11-16T02:29:06.624Z,4.20
2022-11-16T02:31:41.710Z,5.17
2022-11-16T02:34:12.409Z,4.47
2022-11-16T02:36:43.625Z,3.57
2022-11-16T02:39:19.112Z,3.43
2022-11-16T02:41:48.708Z,4.07
2022-11-16T02:44:29.504Z,3.70
2022-11-16T02:46:59.856Z,2.90
2022-11-16T02:49:31.122Z,3.58
2022-11-16T02:52:00.974Z,3.53
2022-11-16T02:54:30.721Z,3.70
2022-11-16T02:57:03.461Z,3.40
2022-11-16T02:59:32.559Z,2.87
2022-11-16T03:02:24.061Z,3.00
2022-11-16T03:05:04.723Z,3.10
2022-11-16T03:07:38.894Z,3.67
2022-11-16T03:10:06.321Z,3.00
2022-11-16T03:12:35.875Z,3.40
2022-11-16T03:15:07.330Z,3.20
2022-11-16T03:17:33.927Z,3.43
2022-11-16T03:20:15.053Z,3.47
2022-11-16T03:22:49.307Z,3.47
2022-11-16T03:25:20.959Z,4.13
2022-11-16T03:27:55.899Z,3.17
2022-11-16T03:30:27.669Z,3.37
2022-11-16T03:33:04.238Z,3.90
2022-11-16T03:35:54.476Z,3.37
2022-11-16T03:38:24.585Z,3.40
2022-11-16T03:40:57.418Z,3.13
2022-11-16T03:43:27.943Z,3.47
2022-11-16T03:45:55.083Z,3.37
2022-11-16T03:48:21.819Z,3.03
2022-11-16T03:50:49.197Z,3.20
2022-11-16T03:53:15.886Z,3.10
2022-11-16T03:55:47.008Z,3.20
2022-11-16T03:58:18.492Z,3.13
2022-11-16T04:00:45.492Z,2.70
2022-11-16T04:03:12.156Z,3.13
2022-11-16T04:05:57.629Z,3.03
2022-11-16T04:08:42.884Z,3.20
2022-11-16T04:11:33.951Z,3.13
2022-11-16T04:14:24.005Z,3.03
2022-11-16T04:17:09.396Z,5.37
2022-11-16T04:19:58.340Z,2.90
2022-11-16T04:22:49.397Z,2.97
2022-11-16T04:25:27.023Z,2.83
2022-11-16T04:28:13.368Z,3.20
2022-11-16T04:31:28.241Z,5.60
2022-11-16T04:34:13.543Z,3.27
2022-11-16T04:36:59.010Z,2.97
2022-11-16T04:39:28.015Z,3.63
2022-11-16T04:42:15.541Z,2.80
2022-11-16T04:45:00.643Z,3.17
2022-11-16T04:47:27.281Z,2.83
2022-11-16T04:49:53.917Z,3.43
2022-11-16T04:52:23.010Z,3.23
2022-11-16T04:54:52.119Z,4.27
2022-11-16T04:57:21.304Z,2.70
2022-11-16T04:59:50.314Z,2.60
2022-11-16T05:02:17.098Z,2.40
2022-11-16T05:04:49.099Z,2.90
2022-11-16T05:07:17.931Z,2.33
2022-11-16T05:09:46.912Z,2.43
2022-11-16T05:12:28.417Z,2.77
2022-11-16T05:14:55.617Z,2.43
2022-11-16T05:17:25.633Z,2.63
2022-11-16T05:20:10.774Z,2.40
2022-11-16T05:22:40.426Z,2.10
2022-11-16T05:25:10.548Z,2.10
2022-11-16T05:27:39.906Z,2.70
2022-11-16T05:30:07.678Z,2.60
2022-11-16T05:32:36.776Z,2.33
2022-11-16T05:35:03.540Z,1.90
2022-11-16T05:37:30.481Z,2.20
2022-11-16T05:39:57.195Z,2.37
2022-11-16T05:42:28.585Z,1.93
2022-11-16T05:44:59.882Z,2.10
2022-11-16T05:47:26.502Z,2.80
2022-11-16T05:49:55.356Z,2.03
2022-11-16T05:52:21.971Z,2.03
2022-11-16T05:54:48.610Z,2.67
2022-11-16T05:57:15.403Z,2.80
2022-11-16T05:59:44.613Z,1.73
2022-11-16T06:02:11.247Z,1.80
2022-11-16T06:04:37.897Z,1.83
2022-11-16T06:07:04.538Z,1.83
2022-11-16T06:09:31.227Z,2.50
2022-11-16T06:12:00.051Z,1.90
2022-11-16T06:14:26.694Z,1.80
2022-11-16T06:16:55.875Z,1.57
2022-11-16T06:19:22.557Z,1.87
2022-11-16T06:21:49.237Z,3.50
2022-11-16T06:24:15.975Z,1.60
2022-11-16T06:26:42.669Z,2.03
2022-11-16T06:29:09.305Z,1.80
2022-11-16T06:31:38.186Z,2.00
2022-11-16T06:34:04.809Z,1.50
2022-11-16T06:36:31.437Z,1.53
2022-11-16T06:39:00.842Z,2.10
2022-11-16T06:41:27.480Z,1.77
2022-11-16T06:43:56.428Z,2.23
2022-11-16T06:46:24.527Z,2.83
2022-11-16T06:48:51.274Z,2.50
2022-11-16T06:51:20.205Z,2.07
2022-11-16T06:53:46.861Z,2.40
2022-11-16T06:56:15.370Z,2.60
2022-11-16T06:58:43.047Z,2.53
2022-11-16T07:01:11.542Z,3.00
2022-11-16T07:03:40.802Z,2.67
2022-11-16T07:06:09.916Z,2.27
2022-11-16T07:08:41.826Z,2.50
2022-11-16T07:11:10.175Z,2.97
2022-11-16T07:13:37.891Z,6.17
2022-11-16T07:16:10.350Z,2.83
2022-11-16T07:18:38.861Z,7.47
2022-11-16T07:21:12.560Z,3.30
2022-11-16T07:23:39.874Z,3.50
2022-11-16T07:26:10.741Z,4.87
2022-11-16T07:28:46.580Z,3.72
2022-11-16T07:31:17.084Z,3.30
2022-11-16T07:33:43.769Z,5.50
2022-11-16T07:36:14.419Z,3.23
2022-11-16T07:38:41.624Z,4.50
2022-11-16T07:41:26.255Z,3.20
2022-11-16T07:43:53.563Z,3.40
2022-11-16T07:49:19.213Z,3.33
2022-11-16T07:51:48.398Z,2.80
2022-11-16T07:54:17.360Z,2.53
2022-11-16T07:56:44.153Z,3.20
2022-11-16T07:59:10.917Z,4.70
2022-11-16T08:01:39.797Z,3.33
2022-11-16T08:04:06.540Z,2.43
2022-11-16T08:06:33.265Z,4.03
2022-11-16T08:09:00.709Z,3.30
2022-11-16T08:11:27.608Z,3.53
2022-11-16T08:13:56.408Z,3.53
2022-11-16T08:16:23.672Z,2.70
2022-11-16T08:18:50.415Z,2.63
2022-11-16T08:21:18.433Z,2.30
2022-11-16T08:23:45.948Z,3.00
2022-11-16T08:26:15.305Z,3.87
2022-11-16T08:28:50.849Z,2.60
2022-11-16T08:31:21.020Z,3.93
2022-11-16T08:33:48.029Z,2.60
2022-11-16T08:36:17.501Z,4.13
2022-11-16T08:38:45.656Z,3.60
2022-11-16T08:41:14.761Z,2.37
2022-11-16T08:43:42.527Z,2.93
2022-11-16T08:46:13.573Z,2.23
2022-11-16T08:48:42.892Z,2.13
2022-11-16T08:51:20.615Z,2.17
2022-11-16T08:53:49.055Z,2.87
2022-11-16T08:56:19.053Z,1.57
2022-11-16T08:58:50.392Z,1.60
2022-11-16T09:01:21.822Z,3.90
2022-11-16T09:03:48.502Z,1.70
2022-11-16T09:06:15.755Z,1.83
2022-11-16T09:08:46.688Z,1.67
2022-11-16T09:11:18.626Z,2.07
2022-11-16T09:13:46.885Z,1.93
2022-11-16T09:16:16.499Z,1.43
2022-11-16T09:18:45.564Z,1.50
2022-11-16T09:21:12.480Z,1.60
2022-11-16T09:23:40.374Z,3.63
2022-11-16T09:26:09.214Z,1.63
2022-11-16T09:28:38.101Z,1.63
2022-11-16T09:31:07.349Z,2.93
2022-11-16T09:33:34.695Z,2.37
2022-11-16T09:36:07.087Z,1.83
2022-11-16T09:39:13.991Z,2.10
2022-11-16T09:42:09.939Z,4.20
2022-11-16T09:45:00.528Z,1.93
2022-11-16T09:47:51.694Z,1.93
2022-11-16T09:50:32.508Z,2.57
2022-11-16T09:53:13.381Z,1.93
2022-11-16T09:55:52.997Z,1.80
2022-11-16T09:58:33.171Z,2.17
2022-11-16T10:01:05.965Z,2.03
2022-11-16T10:03:43.215Z,1.73
2022-11-16T10:06:22.162Z,1.77
2022-11-16T10:08:56.588Z,1.63
2022-11-16T10:11:25.957Z,1.57
2022-11-16T10:13:52.570Z,1.77
2022-11-16T10:16:40.150Z,1.37
2022-11-16T10:19:22.226Z,1.60
2022-11-16T10:21:57.647Z,2.00
2022-11-16T10:24:38.368Z,3.83
2022-11-16T10:27:22.122Z,1.90
2022-11-16T10:29:57.972Z,1.83
2022-11-16T10:32:34.563Z,3.47
2022-11-16T10:35:14.909Z,1.50
2022-11-16T10:37:49.064Z,1.03
2022-11-16T10:40:20.066Z,1.20
2022-11-16T10:42:57.853Z,1.10
2022-11-16T10:45:32.858Z,2.00
2022-11-16T10:47:59.435Z,1.20
2022-11-16T10:50:31.812Z,1.63
2022-11-16T10:52:59.880Z,1.55
2022-11-16T10:55:28.801Z,2.17
2022-11-16T10:58:05.653Z,1.40
2022-11-16T11:00:46.929Z,2.50
2022-11-16T11:03:13.925Z,1.00
2022-11-16T11:05:53.449Z,3.13
2022-11-16T11:08:30.960Z,1.57
2022-11-16T11:11:01.903Z,1.13
2022-11-16T11:13:34.636Z,2.10
2022-11-16T11:16:18.459Z,2.77
2022-11-16T11:18:45.119Z,1.17
2022-11-16T11:21:19.286Z,3.08
2022-11-16T11:23:52.374Z,2.57
2022-11-16T11:26:40.874Z,0.90
2022-11-16T11:29:21.643Z,1.63
2022-11-16T11:32:24.138Z,1.13
2022-11-16T11:35:00.030Z,2.58
2022-11-16T11:37:37.593Z,1.80
2022-11-16T11:40:18.442Z,3.37
2022-11-16T11:43:03.403Z,3.10
2022-11-16T11:45:39.186Z,1.10
2022-11-16T11:48:24.513Z,2.47
2022-11-16T11:51:09.326Z,1.92
2022-11-16T11:53:45.495Z,1.63
2022-11-16T11:56:14.059Z,1.57
2022-11-16T11:58:42.123Z,2.23
2022-11-16T12:01:27.646Z,2.43
2022-11-16T12:04:15.431Z,1.97
2022-11-16T12:07:07.332Z,2.17
2022-11-16T12:09:47.617Z,2.43
2022-11-16T12:12:17.668Z,1.00
2022-11-16T12:15:04.554Z,2.27
2022-11-16T12:17:47.656Z,2.67
2022-11-16T12:20:39.242Z,2.83
2022-11-16T12:23:18.415Z,2.20
2022-11-16T12:26:15.959Z,1.57
2022-11-16T12:28:51.673Z,1.70
2022-11-16T12:31:33.343Z,1.63
2022-11-16T12:34:12.182Z,2.05
2022-11-16T12:37:00.096Z,1.93
2022-11-16T12:39:37.879Z,1.87
2022-11-16T12:42:33.827Z,1.70
2022-11-16T12:45:18.430Z,1.80
2022-11-16T12:48:06.334Z,1.83
2022-11-16T12:50:54.084Z,1.95
2022-11-16T12:53:42.470Z,2.93
2022-11-16T12:56:35.318Z,1.37
2022-11-16T12:59:19.796Z,1.80
2022-11-16T13:02:08.432Z,1.17
2022-11-16T13:04:35.023Z,3.67
2022-11-16T13:07:41.233Z,6.43
2022-11-16T13:10:18.567Z,1.83
2022-11-16T13:12:48.634Z,1.73
2022-11-16T13:15:20.988Z,2.23
2022-11-16T13:17:59.609Z,1.80
2022-11-16T13:20:32.351Z,1.67
2022-11-16T13:23:05.800Z,1.20
2022-11-16T13:26:10.483Z,2.33
2022-11-16T13:29:09.460Z,1.30
2022-11-16T13:32:00.725Z,1.33
2022-11-16T13:34:33.781Z,3.17
2022-11-16T13:37:00.544Z,1.43
2022-11-16T13:39:58.102Z,1.90
2022-11-16T13:42:26.474Z,1.57
2022-11-16T13:45:19.862Z,1.57
2022-11-16T13:47:55.689Z,2.50
2022-11-16T13:50:37.767Z,1.20
2022-11-16T13:56:07.109Z,2.93
2022-11-16T13:58:36.913Z,1.77
2022-11-16T14:01:08.823Z,2.40
2022-11-16T14:03:40.125Z,1.80
2022-11-16T14:06:29.741Z,1.77
2022-11-16T14:09:02.647Z,2.17
2022-11-16T14:11:38.637Z,1.00
2022-11-16T14:14:51.071Z,1.80
2022-11-16T14:17:48.713Z,1.63
2022-11-16T14:20:24.182Z,1.80
2022-11-16T14:23:01.139Z,1.63
2022-11-16T14:25:42.147Z,1.20
2022-11-16T14:28:40.206Z,3.07
2022-11-16T14:31:12.968Z,1.77
2022-11-16T14:33:39.711Z,1.97
2022-11-16T14:36:10.541Z,1.37
2022-11-16T14:38:41.962Z,1.23
2022-11-16T14:41:21.034Z,2.03
2022-11-16T14:43:56.516Z,2.17
2022-11-16T14:46:28.015Z,2.43
2022-11-16T14:48:56.575Z,2.53
2022-11-16T14:51:29.236Z,1.37
2022-11-16T14:53:59.764Z,2.33
2022-11-16T14:56:31.067Z,2.47
2022-11-16T14:59:02.126Z,2.13
2022-11-16T15:01:30.735Z,2.65
2022-11-16T15:04:08.357Z,2.07
2022-11-16T15:06:53.532Z,4.80
2022-11-16T15:09:25.873Z,3.47
2022-11-16T15:12:11.162Z,2.63
2022-11-16T15:14:44.283Z,3.00
2022-11-16T15:17:17.968Z,3.20
2022-11-16T15:19:54.299Z,3.43
2022-11-16T15:22:21.326Z,4.13
2022-11-16T15:25:00.776Z,5.43
2022-11-16T15:27:42.947Z,6.33
2022-11-16T15:30:22.611Z,3.47
2022-11-16T15:32:51.162Z,2.90
2022-11-16T15:35:23.813Z,2.73
2022-11-16T15:38:18.118Z,2.90
2022-11-16T15:40:51.990Z,2.47
2022-11-16T15:43:25.052Z,4.93
2022-11-16T15:45:52.932Z,5.35
2022-11-16T15:48:23.100Z,4.47
2022-11-16T15:51:08.634Z,2.83
2022-11-16T15:53:39.750Z,3.77
2022-11-16T15:56:31.706Z,4.40
2022-11-16T15:59:01.214Z,3.80
2022-11-16T16:01:30.186Z,3.83
2022-11-16T16:04:01.876Z,2.43
2022-11-16T16:06:59.970Z,3.07
2022-11-16T16:09:36.773Z,3.07
2022-11-16T16:12:21.970Z,5.07
2022-11-16T16:14:50.202Z,5.50
2022-11-16T16:17:30.337Z,2.45
2022-11-16T16:20:02.680Z,6.87
2022-11-16T16:22:36.677Z,3.40
2022-11-16T16:25:06.559Z,2.70
2022-11-16T16:27:41.194Z,2.40
2022-11-16T16:30:08.591Z,5.23
2022-11-16T16:32:40.250Z,3.97
2022-11-16T16:35:15.161Z,3.40
2022-11-16T16:37:41.795Z,2.43
2022-11-16T16:40:09.027Z,2.40
2022-11-16T16:42:35.710Z,2.17
2022-11-16T16:45:02.641Z,3.73
2022-11-16T16:47:32.167Z,5.60
2022-11-16T16:49:58.801Z,2.43
2022-11-16T16:52:25.476Z,1.20
2022-11-16T16:54:54.574Z,2.43
2022-11-16T16:57:21.260Z,1.70
2022-11-16T16:59:50.586Z,1.27
2022-11-16T17:02:17.423Z,3.10
2022-11-16T17:04:46.957Z,2.13
2022-11-16T17:07:16.348Z,1.53
2022-11-16T17:09:45.697Z,2.73
2022-11-16T17:12:12.728Z,2.00
2022-11-16T17:14:39.414Z,2.00
2022-11-16T17:17:06.398Z,1.17
2022-11-16T17:19:33.100Z,1.07
2022-11-16T17:21:59.984Z,1.37
2022-11-16T17:24:26.706Z,4.93
2022-11-16T17:26:53.388Z,4.00
2022-11-16T17:29:22.255Z,2.43
2022-11-16T17:31:48.915Z,2.78
2022-11-16T17:34:15.631Z,2.47
2022-11-16T17:36:43.268Z,3.47
2022-11-16T17:39:12.242Z,1.70
2022-11-16T17:41:38.917Z,3.23
2022-11-16T17:44:06.154Z,0.90
2022-11-16T17:46:35.307Z,2.20
2022-11-16T17:49:02.145Z,1.43
2022-11-16T17:51:31.368Z,2.83
2022-11-16T17:53:58.317Z,1.13
2022-11-16T17:56:29.336Z,1.87
2022-11-16T17:58:58.314Z,0.93
2022-11-16T18:01:29.702Z,1.70
2022-11-16T18:03:58.842Z,1.40
2022-11-16T18:06:28.204Z,4.90
2022-11-16T18:08:55.177Z,2.07
2022-11-16T18:11:26.319Z,1.50
2022-11-16T18:13:57.501Z,1.77
2022-11-16T18:16:29.240Z,5.10
2022-11-16T18:19:01.572Z,5.00
2022-11-16T18:21:30.803Z,3.63
2022-11-16T18:24:00.392Z,2.20
2022-11-16T18:26:27.279Z,3.43
2022-11-16T18:28:54.134Z,8.20
2022-11-16T18:31:23.776Z,1.98
2022-11-16T18:33:53.135Z,5.43
2022-11-16T18:36:20.643Z,2.47
2022-11-16T18:38:47.607Z,2.83
2022-11-16T18:41:14.217Z,3.17
2022-11-16T18:44:01.768Z,3.77
2022-11-16T18:46:30.726Z,1.87
2022-11-16T18:48:58.096Z,1.02
2022-11-16T18:51:27.082Z,2.70
2022-11-16T18:53:56.423Z,1.40
2022-11-16T18:56:23.677Z,2.50
2022-11-16T18:58:52.421Z,1.87
2022-11-16T19:01:21.900Z,2.03
2022-11-16T19:03:48.760Z,0.97
2022-11-16T19:06:17.889Z,0.90
2022-11-16T19:08:55.254Z,2.20
2022-11-16T19:11:25.702Z,3.03
2022-11-16T19:13:57.954Z,5.63
2022-11-16T19:16:27.253Z,1.07
2022-11-16T19:18:53.869Z,1.27
2022-11-16T19:21:24.424Z,1.53
2022-11-16T19:23:55.585Z,2.70
2022-11-16T19:26:27.617Z,2.83
2022-11-16T19:28:54.958Z,1.47
2022-11-16T19:31:21.611Z,0.97
2022-11-16T19:33:48.708Z,1.33
2022-11-16T19:36:18.224Z,2.13
2022-11-16T19:38:48.092Z,0.97
2022-11-16T19:41:16.567Z,1.10
2022-11-16T19:43:45.909Z,0.60
2022-11-16T19:46:16.875Z,1.20
2022-11-16T19:48:44.502Z,1.63
2022-11-16T19:51:17.018Z,1.80
2022-11-16T19:53:44.042Z,1.47
2022-11-16T19:56:12.811Z,0.70
2022-11-16T19:58:40.046Z,1.70
2022-11-16T20:01:10.704Z,0.93
2022-11-16T20:03:41.856Z,1.38
2022-11-16T20:06:14.814Z,0.80
2022-11-16T20:08:43.110Z,0.90
2022-11-16T20:11:20.185Z,1.23
2022-11-16T20:13:48.032Z,2.90
2022-11-16T20:16:16.262Z,1.53
2022-11-16T20:18:46.536Z,3.40
2022-11-16T20:21:36.056Z,1.00
2022-11-16T20:24:07.362Z,4.93
2022-11-16T20:26:36.533Z,0.97
2022-11-16T20:29:03.445Z,1.30
2022-11-16T20:31:32.306Z,2.17
2022-11-16T20:34:03.424Z,1.45
2022-11-16T20:36:33.243Z,0.90
2022-11-16T20:39:02.340Z,0.77
2022-11-16T20:41:30.955Z,3.23
2022-11-16T20:43:59.316Z,2.37
2022-11-16T20:46:28.336Z,1.73
2022-11-16T20:48:57.019Z,1.25
2022-11-16T20:51:23.908Z,1.03
2022-11-16T20:53:51.928Z,1.63
2022-11-16T20:56:19.708Z,0.70
2022-11-16T20:58:47.509Z,1.30
2022-11-16T21:01:28.097Z,0.90
2022-11-16T21:03:55.997Z,0.90
2022-11-16T21:06:23.047Z,1.10
2022-11-16T21:08:54.215Z,3.23
2022-11-16T21:11:25.486Z,1.43
2022-11-16T21:14:13.451Z,1.87
2022-11-16T21:16:40.339Z,4.80
2022-11-16T21:19:09.660Z,1.03
2022-11-16T21:21:37.901Z,1.30
2022-11-16T21:24:07.038Z,1.67
2022-11-16T21:26:34.314Z,2.60
2022-11-16T21:29:02.019Z,1.83
2022-11-16T21:31:31.095Z,1.47
2022-11-16T21:34:00.457Z,1.00
2022-11-16T21:36:31.217Z,3.53
2022-11-16T21:39:00.627Z,0.80
2022-11-16T21:41:32.695Z,1.23
2022-11-16T21:44:01.494Z,0.93
2022-11-16T21:46:28.260Z,1.77
2022-11-16T21:48:56.651Z,1.43
2022-11-16T21:51:28.410Z,1.77
2022-11-16T21:53:55.472Z,3.03
2022-11-16T21:56:25.998Z,1.52
2022-11-16T21:58:53.639Z,1.27
2022-11-16T22:01:23.586Z,3.30
2022-11-16T22:04:10.327Z,2.27
2022-11-16T22:06:55.758Z,1.37
2022-11-16T22:09:24.930Z,2.83
2022-11-16T22:11:51.590Z,1.87
2022-11-16T22:14:20.745Z,1.43
2022-11-16T22:16:47.516Z,1.30
2022-11-16T22:19:19.045Z,1.47
2022-11-16T22:21:45.667Z,1.43
2022-11-16T22:24:14.765Z,2.00
2022-11-16T22:26:41.670Z,1.50
2022-11-16T22:29:08.301Z,1.80
2022-11-16T22:31:36.052Z,1.47
2022-11-16T22:34:02.809Z,2.20
2022-11-16T22:36:29.486Z,1.23
2022-11-16T22:38:57.053Z,2.50
2022-11-16T22:41:25.859Z,1.60
2022-11-16T22:43:52.591Z,1.80
2022-11-16T22:46:19.256Z,1.83
2022-11-16T22:48:47.744Z,1.87
2022-11-16T22:51:19.536Z,3.33
2022-11-16T22:53:46.633Z,2.67
2022-11-16T22:56:13.598Z,3.60
2022-11-16T22:58:42.562Z,3.50
2022-11-16T23:01:12.190Z,4.33
2022-11-16T23:03:41.326Z,5.17
2022-11-16T23:06:08.610Z,3.80
2022-11-16T23:08:36.259Z,6.00
2022-11-16T23:11:27.029Z,4.93
2022-11-16T23:14:13.262Z,6.77
2022-11-16T23:16:40.890Z,4.43
2022-11-16T23:19:44.882Z,3.93
2022-11-16T23:22:36.485Z,3.87
2022-11-16T23:25:22.803Z,4.65
2022-11-16T23:27:56.832Z,3.40
2022-11-16T23:30:24.106Z,5.00
2022-11-16T23:32:51.173Z,4.90
2022-11-16T23:35:18.197Z,4.13
2022-11-16T23:38:02.337Z,5.00
2022-11-16T23:40:31.537Z,4.30
2022-11-16T23:43:17.276Z,6.50
2022-11-16T23:45:47.384Z,4.57
2022-11-16T23:48:18.205Z,7.00
2022-11-16T23:50:45.767Z,5.80
2022-11-16T23:53:12.939Z,4.77
2022-11-16T23:55:42.538Z,6.63
2022-11-16T23:58:15.099Z,8.90
